Time,TemperatureF,DewpointF,PressureIn,WindDirection,WindDirectionDegrees,WindSpeedMPH,WindSpeedGustMPH,Humidity,HourlyPrecipIn,Conditions,Clouds,dailyrainin,SoftwareType,DateUTC
2013-06-07 00:02:00,62.0,44.0,-100.00,SSE,160,1.0,2.0,52,-99.99,,,-99.99,,2013-06-07 07:02:00,
2013-06-07 00:12:00,62.0,44.0,-100.00,SSE,160,1.0,2.0,52,-99.99,,,-99.99,,2013-06-07 07:12:00,
2013-06-07 00:22:00,61.0,42.0,-100.00,SE,137,0.0,2.0,50,-99.99,,,-99.99,,2013-06-07 07:22:00,
2013-06-07 00:32:00,61.0,42.0,-100.00,SE,137,0.0,2.0,50,-99.99,,,-99.99,,2013-06-07 07:32:00,
2013-06-07 00:42:00,61.0,42.0,-100.00,SE,137,0.0,2.0,50,-99.99,,,-99.99,,2013-06-07 07:42:00,
2013-06-07 00:52:00,61.0,45.0,-100.00,SSE,165,1.0,2.0,55,-99.99,,,-99.99,,2013-06-07 07:52:00,
2013-06-07 01:02:00,61.0,45.0,-100.00,SSE,165,1.0,2.0,55,-99.99,,,-99.99,,2013-06-07 08:02:00,
2013-06-07 01:12:00,61.0,45.0,-100.00,SSE,165,1.0,2.0,55,-99.99,,,-99.99,,2013-06-07 08:12:00,
2013-06-07 08:43:00,60.0,48.0,-100.00,NNW,335,1.0,4.0,64,-99.99,,,-99.99,,2013-06-07 15:43:00,
2013-06-07 08:53:00,61.0,50.0,-100.00,NNW,330,1.0,4.0,67,-99.99,,,-99.99,,2013-06-07 15:53:00,
2013-06-07 09:03:00,61.0,50.0,-100.00,NNW,330,1.0,4.0,67,-99.99,,,-99.99,,2013-06-07 16:03:00,
2013-06-07 09:12:00,61.0,50.0,-100.00,NNW,330,1.0,4.0,67,-99.99,,,-99.99,,2013-06-07 16:12:00,
2013-06-07 09:22:00,61.0,50.0,-100.00,WNW,298,1.0,5.0,66,-99.99,,,-99.99,,2013-06-07 16:22:00,
2013-06-07 09:33:00,61.0,50.0,-100.00,WNW,298,1.0,5.0,66,-99.99,,,-99.99,,2013-06-07 16:33:00,
2013-06-07 09:43:00,61.0,50.0,-100.00,WNW,298,1.0,5.0,66,-99.99,,,-99.99,,2013-06-07 16:43:00,
2013-06-07 10:12:00,62.0,51.0,-100.00,NW,305,2.0,7.0,68,-99.99,,,-99.99,,2013-06-07 17:12:00,
2013-06-07 10:22:00,62.0,51.0,-100.00,NW,305,2.0,7.0,68,-99.99,,,-99.99,,2013-06-07 17:22:00,
2013-06-07 10:32:00,62.0,49.0,-100.00,WNW,287,2.0,5.0,63,-99.99,,,-99.99,,2013-06-07 17:32:00,
2013-06-07 10:52:00,62.0,48.0,-100.00,West,272,2.0,5.0,60,-99.99,,,-99.99,,2013-06-07 17:52:00,
2013-06-07 11:04:00,62.0,48.0,-100.00,West,272,2.0,5.0,60,-99.99,,,-99.99,,2013-06-07 18:04:00,
2013-06-07 11:23:00,67.0,47.0,-100.00,WNW,291,1.0,7.0,49,-99.99,,,-99.99,,2013-06-07 18:23:00,
2013-06-07 11:34:00,68.0,51.0,-100.00,NW,315,2.0,5.0,54,-99.99,,,-99.99,,2013-06-07 18:34:00,
2013-06-07 11:42:00,68.0,51.0,-100.00,NW,315,2.0,5.0,54,-99.99,,,-99.99,,2013-06-07 18:42:00,
2013-06-07 11:58:00,68.0,51.0,-100.00,NW,315,2.0,5.0,54,-99.99,,,-99.99,,2013-06-07 18:58:00,
2013-06-07 12:03:00,68.0,51.0,-100.00,WNW,299,1.0,4.0,54,-99.99,,,-99.99,,2013-06-07 19:03:00,
2013-06-07 12:14:00,68.0,51.0,-100.00,WNW,299,1.0,4.0,54,-99.99,,,-99.99,,2013-06-07 19:14:00,
2013-06-07 12:34:00,71.0,38.0,-100.00,WNW,296,1.0,3.0,30,-99.99,,,-99.99,,2013-06-07 19:34:00,
2013-06-07 12:57:00,71.0,42.0,-100.00,WNW,287,2.0,4.0,35,-99.99,,,-99.99,,2013-06-07 19:57:00,
2013-06-07 13:03:00,71.0,42.0,-100.00,WNW,287,2.0,4.0,35,-99.99,,,-99.99,,2013-06-07 20:03:00,
2013-06-07 13:40:00,75.0,45.0,-100.00,WNW,291,2.0,4.0,35,-99.99,,,-99.99,,2013-06-07 20:40:00,
2013-06-07 13:57:00,79.0,32.0,-100.00,West,268,1.0,5.0,18,-99.99,,,-99.99,,2013-06-07 20:57:00,
2013-06-07 14:03:00,79.0,32.0,-100.00,West,268,1.0,5.0,18,-99.99,,,-99.99,,2013-06-07 21:03:00,
2013-06-07 14:14:00,79.0,32.0,-100.00,West,268,1.0,5.0,18,-99.99,,,-99.99,,2013-06-07 21:14:00,
2013-06-07 14:25:00,80.0,40.0,-100.00,NW,323,1.0,5.0,24,-99.99,,,-99.99,,2013-06-07 21:25:00,
2013-06-07 14:38:00,80.0,40.0,-100.00,NW,323,1.0,5.0,24,-99.99,,,-99.99,,2013-06-07 21:38:00,
2013-06-07 14:44:00,80.0,40.0,-100.00,NW,323,1.0,5.0,24,-99.99,,,-99.99,,2013-06-07 21:44:00,
2013-06-07 15:39:00,82.0,52.0,-100.00,NNW,329,1.0,4.0,35,-99.99,,,-99.99,,2013-06-07 22:39:00,
2013-06-07 15:49:00,82.0,52.0,-100.00,NNW,329,1.0,4.0,35,-99.99,,,-99.99,,2013-06-07 22:49:00,
2013-06-07 15:58:00,80.0,55.0,-100.00,NW,323,1.0,5.0,42,-99.99,,,-99.99,,2013-06-07 22:58:00,
2013-06-07 16:04:00,80.0,55.0,-100.00,NW,323,1.0,5.0,42,-99.99,,,-99.99,,2013-06-07 23:04:00,
2013-06-07 17:26:00,87.0,42.0,-100.00,NW,318,1.0,3.0,21,-99.99,,,-99.99,,2013-06-08 00:26:00,
2013-06-07 17:34:00,87.0,28.0,-100.00,WNW,295,1.0,5.0,12,-99.99,,,-99.99,,2013-06-08 00:34:00,
2013-06-07 17:44:00,87.0,28.0,-100.00,WNW,295,1.0,5.0,12,-99.99,,,-99.99,,2013-06-08 00:44:00,
2013-06-07 17:53:00,88.0,36.0,-100.00,NW,320,1.0,5.0,16,-99.99,,,-99.99,,2013-06-08 00:53:00,
2013-06-07 18:04:00,88.0,36.0,-100.00,NW,320,1.0,5.0,16,-99.99,,,-99.99,,2013-06-08 01:04:00,
2013-06-07 18:14:00,86.0,39.0,-100.00,NNW,333,1.0,4.0,19,-99.99,,,-99.99,,2013-06-08 01:14:00,
2013-06-07 18:24:00,86.0,39.0,-100.00,NNW,333,1.0,4.0,19,-99.99,,,-99.99,,2013-06-08 01:24:00,
2013-06-07 18:36:00,86.0,39.0,-100.00,NNW,333,1.0,4.0,19,-99.99,,,-99.99,,2013-06-08 01:36:00,
2013-06-07 18:43:00,86.0,39.0,-100.00,NNW,333,1.0,4.0,19,-99.99,,,-99.99,,2013-06-08 01:43:00,
2013-06-07 18:59:00,85.0,39.0,-100.00,NNW,329,1.0,3.0,20,-99.99,,,-99.99,,2013-06-08 01:59:00,
2013-06-07 19:07:00,85.0,39.0,-100.00,NNW,329,1.0,3.0,20,-99.99,,,-99.99,,2013-06-08 02:07:00,
2013-06-07 19:13:00,85.0,39.0,-100.00,NNW,329,1.0,3.0,20,-99.99,,,-99.99,,2013-06-08 02:13:00,
2013-06-07 19:59:00,77.0,39.0,-100.00,NE,38,1.0,5.0,26,-99.99,,,-99.99,,2013-06-08 02:59:00,
2013-06-07 20:08:00,77.0,39.0,-100.00,NE,38,1.0,5.0,26,-99.99,,,-99.99,,2013-06-08 03:08:00,
2013-06-07 20:15:00,77.0,39.0,-100.00,NE,38,1.0,5.0,26,-99.99,,,-99.99,,2013-06-08 03:15:00,
2013-06-07 20:25:00,73.0,41.0,-100.00,SSE,157,0.0,3.0,31,-99.99,,,-99.99,,2013-06-08 03:25:00,
2013-06-07 20:33:00,73.0,41.0,-100.00,SSE,157,0.0,3.0,31,-99.99,,,-99.99,,2013-06-08 03:33:00,
2013-06-07 20:54:00,70.0,38.0,-100.00,South,172,2.0,3.0,31,-99.99,,,-99.99,,2013-06-08 03:54:00,
2013-06-07 21:03:00,70.0,38.0,-100.00,South,172,2.0,3.0,31,-99.99,,,-99.99,,2013-06-08 04:03:00,
2013-06-07 21:12:00,70.0,38.0,-100.00,South,172,2.0,3.0,31,-99.99,,,-99.99,,2013-06-08 04:12:00,
2013-06-07 21:23:00,70.0,36.0,-100.00,South,169,1.0,2.0,29,-99.99,,,-99.99,,2013-06-08 04:23:00,
2013-06-07 21:33:00,69.0,35.0,-100.00,South,171,2.0,3.0,28,-99.99,,,-99.99,,2013-06-08 04:33:00,
2013-06-07 21:42:00,69.0,35.0,-100.00,South,171,2.0,3.0,28,-99.99,,,-99.99,,2013-06-08 04:42:00,
2013-06-07 21:53:00,69.0,35.0,-100.00,South,171,2.0,3.0,28,-99.99,,,-99.99,,2013-06-08 04:53:00,
2013-06-07 22:02:00,69.0,35.0,-100.00,South,171,2.0,3.0,28,-99.99,,,-99.99,,2013-06-08 05:02:00,
2013-06-07 22:12:00,69.0,35.0,-100.00,South,169,2.0,3.0,28,-99.99,,,-99.99,,2013-06-08 05:12:00,
2013-06-07 22:22:00,69.0,35.0,-100.00,South,169,2.0,3.0,28,-99.99,,,-99.99,,2013-06-08 05:22:00,
2013-06-07 22:32:00,69.0,34.0,-100.00,SSE,167,1.0,2.0,27,-99.99,,,-99.99,,2013-06-08 05:32:00,
2013-06-07 22:42:00,69.0,34.0,-100.00,SSE,167,1.0,2.0,27,-99.99,,,-99.99,,2013-06-08 05:42:00,
2013-06-07 22:52:00,69.0,33.0,-100.00,SSE,161,1.0,2.0,26,-99.99,,,-99.99,,2013-06-08 05:52:00,
2013-06-07 23:02:00,69.0,33.0,-100.00,SSE,161,1.0,2.0,26,-99.99,,,-99.99,,2013-06-08 06:02:00,
2013-06-07 23:12:00,68.0,32.0,-100.00,SSE,167,1.0,2.0,26,-99.99,,,-99.99,,2013-06-08 06:12:00,
2013-06-07 23:22:00,68.0,32.0,-100.00,SSE,167,1.0,2.0,26,-99.99,,,-99.99,,2013-06-08 06:22:00,
2013-06-07 23:32:00,66.0,32.0,-100.00,SSE,160,0.0,1.0,28,-99.99,,,-99.99,,2013-06-08 06:32:00,
2013-06-07 23:42:00,66.0,32.0,-100.00,SSE,160,0.0,1.0,28,-99.99,,,-99.99,,2013-06-08 06:42:00,
2013-06-07 23:52:00,65.0,33.0,-100.00,SSE,168,1.0,2.0,30,-99.99,,,-99.99,,2013-06-08 06:52:00,